TA35 weather

Faust Farm Airport
Brenham, Texas, United States

Public forecast

Using degrees Fahrenheit for public forecast. Weather courtesy of forecast.io.

METAR (pilot weather report)

Closest report is Brenham Municipal Airport, 3.4 nm (6.3 km) SSW. Retrieved 2019/09/23 14:35 UTC (0 seconds ago):

K11R 231435Z AUTO 16003KT 10SM BKN006 27/27 A3007 RMK AO2 T02730273

TAF (pilot weather forecast)

Closest forecast is Easterwood Field, 19.0 nm (35.1 km) N. Retrieved 2019/09/23 12:22 UTC (2 hours ago):

TAF KCLL 231120Z 2312/2412 16007KT P6SM SCT006 OVC010 TEMPO 2313/2315 BKN015 FM231500 18007KT P6SM SCT020 BKN035 FM231800 16007KT P6SM SCT045 FM240100 15006KT P6SM SCT250 FM240800 17006KT P6SM OVC015